Time;durP1;ratioP1;P1;durP2;ratioP2;P2;SDS_P1;SDS_P2;PMS_P1;PMS_P2;Temp;Humidity;BMP_temperature;BMP_pressure;BME280_temperature;BME280_humidity;BME280_pressure;Samples;Min_cycle;Max_cycle;Signal;HPM_P1;HPM_P2
2023/09/15 00:00:25;;;;;;;8.73;5.72;;;25.80;46.90;;;;;;5042016;28;20058;-68
2023/09/15 00:02:56;;;;;;;12.98;6.25;;;26.00;46.60;;;;;;5048383;28;20033;-69
2023/09/15 00:05:28;;;;;;;12.52;7.00;;;25.50;48.40;;;;;;5047472;28;20112;-69
2023/09/15 00:07:58;;;;;;;12.85;7.45;;;25.60;47.40;;;;;;5049200;28;20051;-69
2023/09/15 00:10:26;;;;;;;11.45;6.63;;;25.70;46.70;;;;;;5051567;28;20032;-69
2023/09/15 00:12:53;;;;;;;11.90;6.30;;;25.50;46.80;;;;;;5055150;28;20032;-69
2023/09/15 00:15:21;;;;;;;12.95;6.50;;;25.40;47.40;;;;;;5043337;28;20037;-70
2023/09/15 00:17:49;;;;;;;11.63;7.28;;;25.60;47.00;;;;;;5042054;28;20122;-68
2023/09/15 00:20:16;;;;;;;9.60;6.78;;;25.80;46.80;;;;;;5035731;28;20055;-68
2023/09/15 00:22:51;;;;;;;13.60;7.60;;;26.10;47.10;;;;;;5033726;28;20048;-71
2023/09/15 00:25:23;;;;;;;18.25;7.80;;;26.40;46.10;;;;;;5032055;28;20079;-67
2023/09/15 00:27:53;;;;;;;13.00;7.90;;;27.40;45.10;;;;;;5046214;28;20091;-68
2023/09/15 00:30:22;;;;;;;13.48;7.50;;;27.40;46.70;;;;;;5036858;28;20481;-68
2023/09/15 00:32:50;;;;;;;12.88;6.70;;;28.00;45.40;;;;;;5034568;28;20375;-69
2023/09/15 00:35:19;;;;;;;15.68;8.00;;;27.90;45.10;;;;;;5038339;28;20025;-69
2023/09/15 00:37:51;;;;;;;15.32;8.88;;;28.60;42.30;;;;;;5040819;28;20044;-68
2023/09/15 00:40:20;;;;;;;20.77;8.13;;;28.30;41.20;;;;;;5041600;28;20029;-69
2023/09/15 00:42:50;;;;;;;11.55;7.90;;;28.10;40.90;;;;;;5042271;28;20025;-68
2023/09/15 00:45:22;;;;;;;11.60;7.78;;;28.20;40.90;;;;;;5039759;28;20116;-71
2023/09/15 00:47:56;;;;;;;16.77;7.55;;;28.20;41.40;;;;;;5042868;28;20533;-69
2023/09/15 00:50:32;;;;;;;15.73;6.97;;;28.30;40.60;;;;;;5047829;28;20565;-70
2023/09/15 00:53:05;;;;;;;13.23;7.15;;;28.70;40.20;;;;;;5054245;28;20078;-68
2023/09/15 00:55:36;;;;;;;13.02;6.38;;;28.90;40.10;;;;;;5043629;28;20777;-69
2023/09/15 00:58:11;;;;;;;13.35;6.03;;;29.30;38.60;;;;;;5056829;28;20051;-68
2023/09/15 01:00:43;;;;;;;11.40;4.93;;;29.20;39.00;;;;;;5044736;28;20477;-68
2023/09/15 01:03:14;;;;;;;7.30;4.45;;;29.20;37.90;;;;;;5042958;28;20029;-68
2023/09/15 01:05:45;;;;;;;11.38;4.68;;;28.80;37.20;;;;;;5053286;28;21046;-68
2023/09/15 01:08:12;;;;;;;9.23;4.53;;;28.80;37.20;;;;;;5058311;28;20028;-68
2023/09/15 01:10:40;;;;;;;12.88;4.82;;;29.00;37.90;;;;;;5059932;28;20031;-68
2023/09/15 01:13:07;;;;;;;18.42;4.38;;;29.60;36.90;;;;;;5051972;28;20404;-68
2023/09/15 01:15:39;;;;;;;4.55;3.30;;;29.50;35.60;;;;;;5040812;28;20143;-69
2023/09/15 01:18:10;;;;;;;8.70;3.45;;;29.50;35.70;;;;;;5039659;28;20033;-70
2023/09/15 01:20:49;;;;;;;10.32;3.35;;;29.90;35.00;;;;;;5043781;28;20028;-70
2023/09/15 01:24:07;;;;;;;7.63;3.00;;;29.90;35.30;;;;;;5046268;28;20049;-69
2023/09/15 01:26:37;;;;;;;10.63;4.13;;;29.70;35.40;;;;;;5041644;28;20078;-68
2023/09/15 01:29:37;;;;;;;8.30;3.35;;;29.60;36.80;;;;;;5056062;28;20112;-69
2023/09/15 01:32:09;;;;;;;6.55;2.92;;;29.80;34.70;;;;;;5055970;28;20115;-68
2023/09/15 01:34:45;;;;;;;6.40;2.63;;;29.40;35.20;;;;;;5048179;28;20024;-68
2023/09/15 01:37:12;;;;;;;5.70;2.83;;;29.50;34.40;;;;;;5051274;28;20041;-68
2023/09/15 01:39:40;;;;;;;6.15;2.58;;;29.30;34.70;;;;;;5055073;28;20134;-68
2023/09/15 01:42:07;;;;;;;5.38;2.90;;;29.20;34.40;;;;;;5048646;28;20504;-70
2023/09/15 01:44:34;;;;;;;4.90;2.47;;;29.10;35.20;;;;;;5047533;28;20032;-69
2023/09/15 01:47:02;;;;;;;5.00;2.55;;;29.40;33.40;;;;;;5042661;28;20096;-68
2023/09/15 01:49:30;;;;;;;7.30;2.85;;;29.40;34.20;;;;;;5060188;28;20519;-70
2023/09/15 01:51:58;;;;;;;8.20;2.65;;;29.40;34.90;;;;;;5055319;28;20104;-68
2023/09/15 01:54:25;;;;;;;9.65;3.03;;;29.50;35.20;;;;;;5046192;28;20111;-69
2023/09/15 01:56:53;;;;;;;7.32;3.28;;;29.80;35.00;;;;;;5049305;28;20044;-68
2023/09/15 01:59:20;;;;;;;8.70;3.00;;;30.40;35.20;;;;;;5048790;28;20119;-68
2023/09/15 02:01:47;;;;;;;7.10;2.40;;;30.70;32.90;;;;;;5042488;28;20036;-70
2023/09/15 02:04:15;;;;;;;7.22;2.53;;;30.80;32.20;;;;;;5045499;28;20457;-68
2023/09/15 02:06:42;;;;;;;10.90;2.70;;;30.90;32.40;;;;;;5044820;28;20040;-67
2023/09/15 02:09:10;;;;;;;6.50;2.70;;;31.00;33.20;;;;;;5041438;28;20037;-67
2023/09/15 02:11:37;;;;;;;4.22;2.45;;;30.90;32.00;;;;;;5047507;28;20692;-68
2023/09/15 02:14:04;;;;;;;6.13;2.95;;;30.90;32.00;;;;;;5045188;28;20060;-69
2023/09/15 02:16:32;;;;;;;6.55;2.75;;;31.10;32.80;;;;;;5051256;28;20068;-70
2023/09/15 02:19:00;;;;;;;8.00;2.50;;;31.80;32.30;;;;;;5052606;28;20029;-69
2023/09/15 02:21:27;;;;;;;7.63;2.38;;;32.00;32.40;;;;;;5049743;28;20074;-69
2023/09/15 02:23:55;;;;;;;5.72;2.05;;;32.00;30.60;;;;;;5048103;28;20049;-69
2023/09/15 02:26:22;;;;;;;8.07;2.30;;;32.30;30.90;;;;;;5042792;28;20378;-69
2023/09/15 02:28:51;;;;;;;4.03;1.70;;;32.40;30.20;;;;;;5046120;28;20028;-69
2023/09/15 02:31:18;;;;;;;3.30;2.10;;;32.10;29.70;;;;;;5045686;28;20032;-69
2023/09/15 02:33:46;;;;;;;9.05;2.65;;;32.20;29.90;;;;;;5048132;28;20021;-69
2023/09/15 02:36:13;;;;;;;2.40;1.65;;;32.10;29.50;;;;;;5054139;28;20017;-69
2023/09/15 02:38:41;;;;;;;4.43;1.70;;;32.10;29.30;;;;;;5047552;28;20041;-69
2023/09/15 02:41:08;;;;;;;3.25;1.80;;;32.30;30.20;;;;;;5052736;28;20024;-69
2023/09/15 02:43:35;;;;;;;6.28;1.40;;;32.60;29.20;;;;;;5049528;28;20025;-69
2023/09/15 02:46:04;;;;;;;5.28;1.80;;;32.60;28.80;;;;;;5053686;28;20128;-70
2023/09/15 02:48:31;;;;;;;3.35;1.83;;;32.40;29.00;;;;;;5052974;28;20081;-70
2023/09/15 02:50:59;;;;;;;2.47;1.70;;;32.30;28.90;;;;;;5051555;28;20021;-68
2023/09/15 02:53:26;;;;;;;3.90;1.70;;;32.00;29.30;;;;;;5055628;28;20381;-69
2023/09/15 02:56:04;;;;;;;3.78;1.90;;;31.90;29.10;;;;;;5056099;28;20029;-69
2023/09/15 02:58:32;;;;;;;2.95;1.60;;;32.20;29.50;;;;;;5045107;28;20545;-69
2023/09/15 03:01:00;;;;;;;5.25;1.73;;;32.40;29.40;;;;;;5041093;28;20628;-69
2023/09/15 03:03:29;;;;;;;5.10;1.70;;;32.70;29.30;;;;;;5054569;28;20050;-70
2023/09/15 03:06:06;;;;;;;2.80;1.83;;;33.00;28.50;;;;;;5049629;28;20025;-70
2023/09/15 03:08:34;;;;;;;6.75;1.70;;;32.90;28.80;;;;;;5044401;28;20033;-69
2023/09/15 03:11:02;;;;;;;2.83;1.33;;;32.70;28.70;;;;;;5049303;28;20425;-70
2023/09/15 03:13:29;;;;;;;3.42;1.40;;;32.40;28.70;;;;;;5043341;28;20053;-70
2023/09/15 03:16:06;;;;;;;3.08;1.70;;;32.50;28.70;;;;;;5036204;28;20111;-71
2023/09/15 03:18:34;;;;;;;2.55;1.50;;;32.70;28.60;;;;;;5040662;28;20041;-69
2023/09/15 03:21:05;;;;;;;2.17;1.70;;;33.00;29.00;;;;;;5037637;28;20055;-69
2023/09/15 03:23:32;;;;;;;4.47;1.50;;;33.20;28.90;;;;;;5036319;28;20049;-70
2023/09/15 03:26:03;;;;;;;2.42;1.30;;;33.50;27.60;;;;;;5043170;28;20117;-70
2023/09/15 03:28:35;;;;;;;2.72;1.60;;;33.40;28.20;;;;;;5041121;28;20044;-70
2023/09/15 03:31:03;;;;;;;2.78;1.30;;;33.70;28.00;;;;;;5039402;28;20040;-71
2023/09/15 03:33:31;;;;;;;2.50;1.30;;;33.70;27.70;;;;;;5038023;28;20029;-70
2023/09/15 03:36:00;;;;;;;4.35;1.40;;;33.40;27.50;;;;;;5038053;28;20063;-70
2023/09/15 03:38:27;;;;;;;2.00;1.35;;;33.20;27.40;;;;;;5044689;28;20029;-71
2023/09/15 03:40:54;;;;;;;4.35;1.83;;;33.00;27.60;;;;;;5046735;28;20041;-70
2023/09/15 03:43:22;;;;;;;1.83;1.30;;;33.00;27.70;;;;;;5049661;28;20599;-70
2023/09/15 03:45:49;;;;;;;1.70;1.40;;;32.90;27.40;;;;;;5035893;28;20036;-71
2023/09/15 03:48:17;;;;;;;1.77;1.38;;;33.00;27.50;;;;;;5043620;28;20037;-70
2023/09/15 03:50:44;;;;;;;2.47;1.60;;;33.40;27.30;;;;;;5057679;28;20080;-70
2023/09/15 03:53:12;;;;;;;2.45;1.90;;;33.40;27.70;;;;;;5047622;28;20520;-69
2023/09/15 03:55:39;;;;;;;2.72;1.52;;;33.30;26.90;;;;;;5041844;28;20034;-70
2023/09/15 03:58:07;;;;;;;4.03;1.15;;;33.20;27.50;;;;;;5045023;28;20036;-70
2023/09/15 04:00:34;;;;;;;3.03;1.50;;;33.30;27.20;;;;;;5046028;28;20028;-70
2023/09/15 04:03:03;;;;;;;3.33;1.52;;;33.20;26.60;;;;;;5052635;28;20041;-73
2023/09/15 04:05:32;;;;;;;8.27;1.77;;;32.90;26.60;;;;;;5043518;28;20036;-69
2023/09/15 04:07:59;;;;;;;3.70;1.73;;;33.10;27.10;;;;;;5042150;28;20039;-69
2023/09/15 04:10:27;;;;;;;4.00;1.80;;;33.00;26.50;;;;;;5035486;28;20431;-71
2023/09/15 04:12:54;;;;;;;4.60;1.67;;;32.90;26.90;;;;;;5038541;28;20056;-71
2023/09/15 04:15:21;;;;;;;2.67;1.58;;;32.80;26.60;;;;;;5042205;28;20037;-70
2023/09/15 04:17:49;;;;;;;3.45;1.80;;;32.80;26.70;;;;;;5041005;28;20366;-70
2023/09/15 04:20:16;;;;;;;2.55;1.88;;;33.00;26.40;;;;;;5044635;28;20167;-70
2023/09/15 04:22:43;;;;;;;6.28;2.05;;;33.00;26.50;;;;;;5036383;28;20045;-71
2023/09/15 04:25:14;;;;;;;3.67;2.00;;;33.20;26.70;;;;;;5043147;28;20033;-71
2023/09/15 04:27:41;;;;;;;5.03;1.70;;;33.50;27.20;;;;;;5042360;28;20040;-71
2023/09/15 04:30:09;;;;;;;3.20;1.95;;;33.40;26.40;;;;;;5035072;28;20894;-70
2023/09/15 04:32:36;;;;;;;5.88;1.77;;;33.20;26.80;;;;;;5027766;28;20033;-71
2023/09/15 04:35:05;;;;;;;2.88;1.65;;;33.30;26.70;;;;;;5009388;28;20482;-72
2023/09/15 04:37:32;;;;;;;3.15;1.80;;;33.00;26.90;;;;;;5027420;28;20389;-69
2023/09/15 04:40:02;;;;;;;2.67;1.77;;;33.20;27.00;;;;;;5015951;28;20296;-71
2023/09/15 04:42:30;;;;;;;5.00;1.75;;;33.20;26.80;;;;;;5034987;28;20025;-70
2023/09/15 04:44:57;;;;;;;4.53;1.85;;;33.00;25.70;;;;;;5028671;28;20035;-70
2023/09/15 04:47:36;;;;;;;1.88;1.50;;;32.90;26.10;;;;;;5031111;28;20033;-70
2023/09/15 04:50:04;;;;;;;5.25;2.35;;;33.00;25.50;;;;;;5027693;28;20549;-70
2023/09/15 04:52:31;;;;;;;3.65;2.20;;;32.90;26.10;;;;;;5024215;28;20536;-70
2023/09/15 04:54:59;;;;;;;2.88;1.70;;;32.70;25.80;;;;;;5024337;28;20207;-73
2023/09/15 04:57:27;;;;;;;2.65;1.80;;;32.60;26.00;;;;;;5020567;28;20501;-69
2023/09/15 04:59:55;;;;;;;4.15;1.92;;;32.60;26.90;;;;;;5025444;28;20068;-73
2023/09/15 05:02:23;;;;;;;3.08;2.10;;;32.50;26.90;;;;;;5021041;28;20509;-71
2023/09/15 05:04:52;;;;;;;4.22;2.10;;;32.60;27.20;;;;;;5011040;28;20028;-70
2023/09/15 05:07:27;;;;;;;5.47;2.08;;;32.50;27.10;;;;;;5007406;28;20378;-72
2023/09/15 05:09:54;;;;;;;4.05;1.80;;;32.60;27.30;;;;;;5024670;28;20047;-70
2023/09/15 05:12:22;;;;;;;3.53;1.77;;;32.60;26.90;;;;;;5043822;28;20024;-70
2023/09/15 05:14:49;;;;;;;2.83;1.75;;;32.40;26.10;;;;;;5052551;28;20075;-70
2023/09/15 05:17:16;;;;;;;2.72;1.85;;;32.40;26.30;;;;;;5052422;28;20452;-70
2023/09/15 05:19:44;;;;;;;4.15;1.90;;;32.40;25.90;;;;;;5044850;28;20025;-71
2023/09/15 05:22:11;;;;;;;2.35;1.60;;;32.50;25.10;;;;;;5036051;28;20343;-72
2023/09/15 05:24:38;;;;;;;2.92;1.92;;;32.30;25.20;;;;;;5047991;28;20370;-71
2023/09/15 05:27:06;;;;;;;1.85;1.70;;;32.00;25.40;;;;;;5052804;28;20037;-71
2023/09/15 05:29:34;;;;;;;3.92;1.75;;;32.10;25.70;;;;;;5046614;28;20119;-72
2023/09/15 05:32:01;;;;;;;3.70;1.70;;;32.10;25.70;;;;;;5045607;28;20045;-72
2023/09/15 05:34:28;;;;;;;2.95;1.70;;;32.20;25.70;;;;;;5039636;28;20059;-72
2023/09/15 05:36:56;;;;;;;4.72;1.90;;;32.10;25.60;;;;;;5046828;28;20436;-72
2023/09/15 05:39:24;;;;;;;3.33;1.70;;;32.00;25.70;;;;;;5046921;28;20504;-72
2023/09/15 05:41:51;;;;;;;3.78;1.80;;;32.10;25.70;;;;;;5044251;28;20472;-71
2023/09/15 05:44:18;;;;;;;7.72;1.90;;;32.10;25.90;;;;;;5043946;28;20033;-72
2023/09/15 05:46:48;;;;;;;2.55;2.05;;;32.00;26.40;;;;;;5042174;28;20033;-72
2023/09/15 05:49:15;;;;;;;3.22;1.90;;;32.00;25.90;;;;;;5047578;28;20021;-72
2023/09/15 05:51:42;;;;;;;3.00;1.90;;;31.90;26.10;;;;;;5047954;28;20504;-73
2023/09/15 05:54:11;;;;;;;3.30;2.10;;;31.80;26.10;;;;;;5053577;28;20037;-72
2023/09/15 05:56:38;;;;;;;2.05;1.55;;;31.80;25.90;;;;;;5044762;28;20048;-72
2023/09/15 05:59:06;;;;;;;2.25;1.77;;;31.70;26.30;;;;;;5049439;28;20033;-73
2023/09/15 06:01:33;;;;;;;2.08;1.83;;;31.60;26.00;;;;;;5041051;28;20032;-73
2023/09/15 06:04:01;;;;;;;3.67;2.25;;;31.60;26.00;;;;;;5041027;28;20021;-72
2023/09/15 06:06:28;;;;;;;3.78;2.25;;;31.60;26.30;;;;;;5046359;28;20044;-71
2023/09/15 06:08:56;;;;;;;2.25;1.80;;;31.50;26.70;;;;;;5041899;28;20432;-70
2023/09/15 06:11:23;;;;;;;2.17;1.88;;;31.30;26.70;;;;;;5051800;28;20111;-70
2023/09/15 06:13:50;;;;;;;4.43;2.20;;;31.30;26.70;;;;;;5047537;28;20112;-70
2023/09/15 06:16:17;;;;;;;4.90;2.13;;;31.20;26.60;;;;;;5044413;28;20469;-69
2023/09/15 06:18:45;;;;;;;2.60;2.15;;;31.20;26.60;;;;;;5056315;28;20036;-70
2023/09/15 06:21:12;;;;;;;3.45;2.10;;;31.20;26.60;;;;;;5052696;28;20189;-70
2023/09/15 06:23:40;;;;;;;2.33;2.05;;;31.20;27.20;;;;;;5054646;28;20401;-71
2023/09/15 06:26:08;;;;;;;3.80;2.08;;;31.20;26.80;;;;;;5052134;28;20052;-71
2023/09/15 06:28:36;;;;;;;4.03;2.38;;;31.10;26.90;;;;;;5049282;28;20088;-70
2023/09/15 06:31:03;;;;;;;3.38;2.05;;;31.20;26.90;;;;;;5054255;28;20508;-71
2023/09/15 06:33:31;;;;;;;4.53;2.00;;;31.00;26.90;;;;;;5052517;28;20162;-71
2023/09/15 06:35:58;;;;;;;3.15;2.08;;;31.00;26.70;;;;;;5047705;28;20053;-70
2023/09/15 06:38:26;;;;;;;2.83;1.98;;;30.90;27.10;;;;;;5053352;28;20036;-71
2023/09/15 06:40:54;;;;;;;3.53;1.95;;;30.80;26.50;;;;;;5049223;28;20025;-71
2023/09/15 06:43:21;;;;;;;3.70;2.03;;;30.70;27.10;;;;;;5043964;28;20070;-72
2023/09/15 06:45:49;;;;;;;4.82;2.08;;;30.60;26.40;;;;;;5047633;28;20086;-69
2023/09/15 06:48:16;;;;;;;3.47;2.05;;;30.60;27.00;;;;;;5051347;28;20037;-71
2023/09/15 06:50:45;;;;;;;3.67;2.47;;;30.50;26.90;;;;;;5052549;28;20039;-72
2023/09/15 06:53:13;;;;;;;4.65;2.00;;;30.40;26.50;;;;;;5057380;28;20108;-72
2023/09/15 06:55:40;;;;;;;3.97;2.30;;;30.40;26.70;;;;;;5060387;28;20033;-71
2023/09/15 06:58:07;;;;;;;3.42;2.20;;;30.10;27.00;;;;;;5053779;28;20028;-71
2023/09/15 07:00:35;;;;;;;3.03;2.30;;;30.20;27.00;;;;;;5044393;28;20082;-73
2023/09/15 07:03:02;;;;;;;3.40;1.95;;;30.10;26.80;;;;;;5053452;28;20172;-71
2023/09/15 07:05:29;;;;;;;5.53;2.30;;;29.90;26.90;;;;;;5055433;28;20051;-69
2023/09/15 07:07:57;;;;;;;2.55;1.98;;;29.90;27.00;;;;;;5014015;28;20480;-70
2023/09/15 07:10:25;;;;;;;2.40;1.95;;;29.80;27.30;;;;;;5028603;28;20033;-71
2023/09/15 07:12:52;;;;;;;2.47;1.83;;;29.60;27.50;;;;;;5047677;28;20131;-71
2023/09/15 07:15:20;;;;;;;3.50;2.20;;;29.40;27.40;;;;;;5033907;28;20032;-70
2023/09/15 07:17:47;;;;;;;4.15;2.33;;;29.20;27.60;;;;;;5044386;28;20035;-70
2023/09/15 07:20:14;;;;;;;5.35;3.30;;;29.00;27.70;;;;;;5050163;28;20029;-69
2023/09/15 07:22:42;;;;;;;6.78;3.22;;;28.90;27.70;;;;;;5054142;28;20049;-70
2023/09/15 07:25:09;;;;;;;4.50;3.10;;;28.70;27.50;;;;;;5057230;28;20036;-70
2023/09/15 07:27:36;;;;;;;5.82;2.55;;;28.70;27.80;;;;;;5051455;28;20076;-70
2023/09/15 07:30:04;;;;;;;3.00;2.38;;;28.50;27.70;;;;;;5051887;28;20377;-70
2023/09/15 07:32:32;;;;;;;3.67;1.95;;;28.50;27.60;;;;;;5056497;28;20039;-72
2023/09/15 07:34:59;;;;;;;3.42;2.40;;;28.40;27.80;;;;;;5054994;28;20036;-70
2023/09/15 07:37:27;;;;;;;2.55;2.10;;;28.10;28.20;;;;;;5053154;28;20057;-70
2023/09/15 07:39:54;;;;;;;3.13;2.03;;;27.90;28.20;;;;;;5053929;28;20122;-71
2023/09/15 07:42:22;;;;;;;4.75;2.63;;;27.80;28.30;;;;;;5055096;28;20115;-74
2023/09/15 07:44:49;;;;;;;5.65;2.50;;;27.80;28.20;;;;;;5060326;28;20032;-71
2023/09/15 07:47:16;;;;;;;3.40;2.10;;;27.50;28.30;;;;;;5047429;28;20049;-71
2023/09/15 07:49:44;;;;;;;16.85;2.55;;;27.30;28.50;;;;;;5050339;28;20036;-69
2023/09/15 07:52:11;;;;;;;7.05;2.78;;;27.20;28.80;;;;;;5063053;28;20033;-71
2023/09/15 07:54:38;;;;;;;4.90;2.75;;;27.00;29.60;;;;;;5061403;28;20024;-71
2023/09/15 07:57:06;;;;;;;8.18;2.65;;;26.80;30.60;;;;;;5061172;28;20036;-71
2023/09/15 07:59:33;;;;;;;4.40;2.45;;;26.60;30.70;;;;;;5055671;28;20017;-71
2023/09/15 08:02:01;;;;;;;7.35;2.17;;;26.30;30.80;;;;;;5057839;28;20039;-71
2023/09/15 08:04:28;;;;;;;5.25;2.88;;;26.20;31.20;;;;;;5057037;28;20029;-71
2023/09/15 08:06:56;;;;;;;5.30;2.00;;;26.10;31.00;;;;;;5058605;28;20074;-71
2023/09/15 08:09:23;;;;;;;4.95;2.38;;;26.10;30.60;;;;;;5056410;28;20029;-71
2023/09/15 08:11:50;;;;;;;7.25;2.70;;;26.10;30.90;;;;;;5054955;28;20032;-71
2023/09/15 08:14:18;;;;;;;4.95;2.42;;;26.00;30.70;;;;;;5059030;28;20451;-71
2023/09/15 08:16:45;;;;;;;7.78;2.55;;;26.00;31.00;;;;;;5035355;28;20021;-70
2023/09/15 08:19:13;;;;;;;49.03;12.18;;;25.80;32.30;;;;;;5047443;28;20064;-69
2023/09/15 08:21:40;;;;;;;165.00;44.03;;;25.70;32.80;;;;;;5054768;28;20056;-69
2023/09/15 08:24:08;;;;;;;59.45;16.77;;;25.40;33.80;;;;;;5050237;28;20134;-70
2023/09/15 08:26:35;;;;;;;35.80;9.73;;;25.40;33.20;;;;;;5046911;28;20060;-71
2023/09/15 08:29:04;;;;;;;8.10;3.92;;;25.30;33.10;;;;;;5045315;28;20040;-70
2023/09/15 08:31:32;;;;;;;16.33;5.65;;;25.20;32.20;;;;;;5031955;28;20044;-70
2023/09/15 08:33:59;;;;;;;16.70;5.85;;;25.00;34.30;;;;;;5040265;28;20121;-70
2023/09/15 08:36:27;;;;;;;14.80;5.38;;;24.70;34.50;;;;;;5030485;28;20109;-70
2023/09/15 08:38:55;;;;;;;8.70;4.07;;;24.50;35.70;;;;;;5040237;28;20029;-69
2023/09/15 08:41:39;;;;;;;9.80;4.10;;;24.40;37.00;;;;;;5040700;28;20082;-70
2023/09/15 08:44:09;;;;;;;10.27;3.78;;;24.10;37.30;;;;;;5024982;28;20064;-70
2023/09/15 08:46:42;;;;;;;10.45;4.25;;;24.00;38.40;;;;;;5044267;28;20351;-70
2023/09/15 08:49:09;;;;;;;8.32;4.13;;;23.90;39.10;;;;;;5046101;28;20029;-71
2023/09/15 08:51:40;;;;;;;7.55;3.70;;;24.00;39.30;;;;;;5034899;28;20032;-70
2023/09/15 08:54:08;;;;;;;9.50;3.90;;;24.10;39.60;;;;;;5062066;28;20024;-70
2023/09/15 08:56:36;;;;;;;10.50;4.18;;;23.90;40.20;;;;;;5050091;28;20071;-70
2023/09/15 08:59:05;;;;;;;8.95;4.13;;;23.70;40.90;;;;;;5051527;28;20559;-70
2023/09/15 09:01:33;;;;;;;8.90;4.25;;;23.60;42.40;;;;;;5047390;28;20029;-70
2023/09/15 09:04:01;;;;;;;7.90;4.15;;;23.50;43.30;;;;;;5054934;28;20036;-71
2023/09/15 09:06:32;;;;;;;12.13;4.25;;;23.50;43.40;;;;;;5047634;28;20025;-71
2023/09/15 09:09:04;;;;;;;10.82;4.68;;;23.60;44.60;;;;;;5053214;28;20025;-72
2023/09/15 09:11:32;;;;;;;7.85;3.83;;;23.70;45.10;;;;;;5057175;28;20111;-69
2023/09/15 09:13:59;;;;;;;9.32;4.03;;;23.70;45.90;;;;;;5049491;28;20040;-71
2023/09/15 09:16:28;;;;;;;6.63;4.30;;;23.80;46.00;;;;;;5052738;28;20998;-69
2023/09/15 09:19:06;;;;;;;11.25;4.70;;;23.60;46.80;;;;;;5050107;28;20064;-70
2023/09/15 09:21:34;;;;;;;7.88;4.00;;;23.50;47.20;;;;;;5051877;28;20474;-70
2023/09/15 09:24:02;;;;;;;10.95;4.20;;;23.20;48.40;;;;;;5054621;28;20053;-70
2023/09/15 09:26:30;;;;;;;10.10;4.53;;;23.00;49.10;;;;;;5049218;28;20033;-70
2023/09/15 09:28:58;;;;;;;10.30;5.15;;;23.00;49.80;;;;;;5052725;28;20037;-71
2023/09/15 09:31:29;;;;;;;11.82;4.45;;;23.20;49.30;;;;;;5052187;28;20049;-70
2023/09/15 09:33:58;;;;;;;14.68;4.40;;;22.90;49.40;;;;;;5056295;28;20040;-69
2023/09/15 09:36:26;;;;;;;8.77;4.15;;;22.80;50.50;;;;;;5051292;28;20068;-69
2023/09/15 09:38:55;;;;;;;15.05;4.25;;;22.90;50.60;;;;;;5052761;28;20028;-69
2023/09/15 09:41:28;;;;;;;12.18;3.92;;;23.00;50.50;;;;;;5049699;28;20121;-70
2023/09/15 09:43:56;;;;;;;8.32;4.40;;;23.00;50.80;;;;;;5047870;28;20052;-70
2023/09/15 09:46:23;;;;;;;14.32;4.38;;;22.80;50.90;;;;;;5057143;28;20075;-69
2023/09/15 09:48:51;;;;;;;12.82;3.88;;;22.60;51.50;;;;;;5050958;28;20406;-70
2023/09/15 09:51:19;;;;;;;11.35;4.85;;;22.50;51.70;;;;;;5050836;28;20106;-68
2023/09/15 09:53:47;;;;;;;15.70;4.47;;;22.30;52.40;;;;;;5053243;28;20557;-69
2023/09/15 09:56:16;;;;;;;14.15;4.95;;;22.10;53.10;;;;;;5048007;28;20115;-72
2023/09/15 09:58:44;;;;;;;9.63;4.82;;;22.00;53.30;;;;;;5059473;28;20035;-69
2023/09/15 10:01:11;;;;;;;11.32;5.07;;;22.00;53.80;;;;;;5054741;28;20461;-69
2023/09/15 10:03:40;;;;;;;10.18;4.18;;;21.90;54.40;;;;;;5048647;28;20059;-68
2023/09/15 10:06:08;;;;;;;9.88;4.53;;;21.80;54.80;;;;;;5041604;28;20029;-69
2023/09/15 10:08:39;;;;;;;12.10;4.65;;;21.70;55.40;;;;;;5049846;28;20447;-69
2023/09/15 10:11:08;;;;;;;16.63;5.28;;;21.60;55.50;;;;;;5052998;28;20082;-68
2023/09/15 10:13:37;;;;;;;11.43;5.60;;;21.40;56.20;;;;;;5062699;28;20033;-69
2023/09/15 10:16:04;;;;;;;14.10;4.95;;;21.30;56.60;;;;;;5046123;28;20029;-68
2023/09/15 10:18:32;;;;;;;13.40;5.20;;;21.20;56.70;;;;;;5048802;28;20024;-68
2023/09/15 10:20:59;;;;;;;19.50;4.90;;;21.10;57.40;;;;;;5051740;28;20027;-68
2023/09/15 10:23:27;;;;;;;23.92;6.40;;;21.20;57.40;;;;;;5051322;28;20561;-68
2023/09/15 10:25:55;;;;;;;20.95;5.63;;;21.20;57.30;;;;;;5046438;28;20029;-69
2023/09/15 10:28:25;;;;;;;16.67;5.32;;;21.10;57.70;;;;;;5049140;28;20047;-67
2023/09/15 10:30:56;;;;;;;26.65;5.65;;;21.10;57.60;;;;;;5058539;28;20514;-67
2023/09/15 10:33:30;;;;;;;11.43;4.93;;;21.10;58.00;;;;;;5051184;28;20065;-70
2023/09/15 10:36:11;;;;;;;19.45;5.95;;;21.20;57.70;;;;;;5044295;28;20437;-69
2023/09/15 10:38:40;;;;;;;22.83;6.40;;;21.20;58.10;;;;;;5041277;28;20029;-68
2023/09/15 10:41:10;;;;;;;19.30;6.43;;;21.10;58.40;;;;;;5046508;28;20398;-68
2023/09/15 10:43:58;;;;;;;26.40;6.30;;;21.00;58.70;;;;;;5043996;28;20033;-68
2023/09/15 10:46:39;;;;;;;21.38;5.88;;;20.90;59.50;;;;;;5059034;28;20064;-68
2023/09/15 10:49:17;;;;;;;19.42;5.80;;;20.70;60.40;;;;;;5052905;28;20045;-69
2023/09/15 10:51:55;;;;;;;16.55;5.72;;;20.50;60.80;;;;;;5055170;28;20048;-68
2023/09/15 10:54:32;;;;;;;19.38;5.53;;;20.30;61.20;;;;;;5050203;28;20291;-70
2023/09/15 10:57:01;;;;;;;15.10;5.18;;;20.20;61.90;;;;;;5050809;28;20036;-69
2023/09/15 10:59:29;;;;;;;12.30;5.05;;;20.20;61.80;;;;;;5052474;28;20017;-69
2023/09/15 11:01:58;;;;;;;16.20;5.03;;;20.20;61.80;;;;;;5054899;28;20482;-69
2023/09/15 11:04:28;;;;;;;16.30;5.40;;;20.10;61.80;;;;;;5055219;28;20116;-68
2023/09/15 11:06:55;;;;;;;13.07;5.30;;;20.10;62.80;;;;;;5056605;28;20037;-68
2023/09/15 11:09:25;;;;;;;18.25;5.47;;;20.10;62.10;;;;;;5053846;28;20032;-68
2023/09/15 11:11:53;;;;;;;18.42;6.00;;;20.10;62.20;;;;;;5051277;28;20521;-68
2023/09/15 11:14:22;;;;;;;25.95;7.10;;;20.00;62.40;;;;;;5054779;28;20028;-68
2023/09/15 11:16:52;;;;;;;24.77;6.60;;;20.00;61.90;;;;;;5055250;28;20465;-72
2023/09/15 11:19:20;;;;;;;14.45;7.03;;;20.30;61.20;;;;;;5054612;28;20040;-67
2023/09/15 11:21:51;;;;;;;18.50;6.57;;;20.10;61.00;;;;;;5054567;28;20131;-69
2023/09/15 11:24:19;;;;;;;16.27;5.78;;;20.00;62.20;;;;;;5057401;28;20040;-69
2023/09/15 11:26:48;;;;;;;18.70;5.82;;;19.90;62.30;;;;;;5058550;28;20054;-69
2023/09/15 11:29:17;;;;;;;16.98;6.03;;;19.80;62.50;;;;;;5055605;28;20025;-68
2023/09/15 11:31:46;;;;;;;18.00;6.47;;;19.70;62.60;;;;;;5048300;28;20112;-68
2023/09/15 11:34:17;;;;;;;12.30;6.05;;;19.60;62.70;;;;;;5059321;28;20389;-69
2023/09/15 11:36:45;;;;;;;17.38;7.05;;;19.60;63.20;;;;;;5049908;28;20029;-68
2023/09/15 11:39:15;;;;;;;18.73;6.63;;;19.50;63.60;;;;;;5053650;28;20502;-69
2023/09/15 11:41:56;;;;;;;15.77;6.93;;;19.40;64.10;;;;;;5053097;28;20124;-69
2023/09/15 11:44:25;;;;;;;19.15;7.15;;;19.20;64.90;;;;;;5054314;28;20044;-68
2023/09/15 11:46:56;;;;;;;18.55;6.88;;;19.10;65.90;;;;;;5046821;28;20120;-69
2023/09/15 11:49:28;;;;;;;22.35;6.40;;;19.00;66.20;;;;;;5052032;28;20455;-68
2023/09/15 11:51:57;;;;;;;21.67;6.68;;;19.00;65.90;;;;;;5055083;28;20505;-68
2023/09/15 11:54:26;;;;;;;15.23;6.45;;;18.80;66.60;;;;;;5058275;28;20043;-69
2023/09/15 11:56:54;;;;;;;21.42;7.78;;;18.80;66.80;;;;;;5050024;28;20489;-69
2023/09/15 11:59:21;;;;;;;18.95;7.43;;;18.90;66.60;;;;;;5064762;28;20021;-71
2023/09/15 12:01:49;;;;;;;16.92;7.57;;;18.80;67.20;;;;;;5055565;28;20104;-69
2023/09/15 12:04:16;;;;;;;15.05;6.97;;;18.70;67.40;;;;;;5063930;28;20051;-69
2023/09/15 12:06:45;;;;;;;17.15;7.18;;;18.60;68.40;;;;;;5066108;28;20033;-68
2023/09/15 12:09:14;;;;;;;14.90;7.30;;;18.50;68.70;;;;;;5056238;28;20459;-69
2023/09/15 12:11:44;;;;;;;12.50;7.28;;;18.50;69.10;;;;;;5053603;28;20381;-69
2023/09/15 12:14:15;;;;;;;18.92;6.82;;;18.50;69.60;;;;;;5060988;28;20032;-68
2023/09/15 12:16:49;;;;;;;18.55;7.45;;;18.80;68.60;;;;;;5055990;28;20393;-68
2023/09/15 12:19:19;;;;;;;18.15;6.78;;;18.70;68.40;;;;;;5055187;28;20021;-68
2023/09/15 12:21:59;;;;;;;17.98;7.00;;;18.50;69.50;;;;;;5064082;28;20080;-69
2023/09/15 12:24:28;;;;;;;16.77;7.22;;;18.50;70.10;;;;;;5061658;28;20123;-68
2023/09/15 12:26:56;;;;;;;16.48;7.00;;;18.30;70.70;;;;;;5058520;28;20028;-68
2023/09/15 12:29:23;;;;;;;16.45;6.80;;;18.10;71.50;;;;;;5060753;28;20040;-69
2023/09/15 12:31:51;;;;;;;21.70;7.05;;;18.00;72.20;;;;;;5060610;28;20017;-70
2023/09/15 12:34:19;;;;;;;16.85;7.68;;;17.80;72.30;;;;;;5061197;28;20071;-68
2023/09/15 12:36:48;;;;;;;18.63;7.57;;;17.80;73.00;;;;;;5057210;28;20028;-68
2023/09/15 12:39:16;;;;;;;17.48;7.13;;;17.80;73.30;;;;;;5058379;28;20036;-70
2023/09/15 12:41:44;;;;;;;17.63;7.05;;;17.80;73.60;;;;;;5059490;28;20025;-67
2023/09/15 12:44:14;;;;;;;18.02;7.32;;;17.80;73.80;;;;;;5053496;28;20098;-68
2023/09/15 12:46:41;;;;;;;14.20;6.95;;;17.70;73.70;;;;;;5052529;28;20035;-68
2023/09/15 12:49:09;;;;;;;14.20;6.78;;;17.60;74.00;;;;;;5058095;28;20082;-69
2023/09/15 12:51:38;;;;;;;17.98;7.38;;;17.50;74.60;;;;;;5055962;28;20116;-68